sensor_id;sensor_type;location;lat;lon;timestamp;P1;durP1;ratioP1;P2;durP2;ratioP2
59770;SDS011;45649;53.014;6.600;2023-07-29T00:02:25;9.10;;;8.30;;
59770;SDS011;45649;53.014;6.600;2023-07-29T00:04:54;8.67;;;7.70;;
59770;SDS011;45649;53.014;6.600;2023-07-29T00:07:20;7.93;;;7.23;;
59770;SDS011;45649;53.014;6.600;2023-07-29T00:09:46;8.97;;;8.17;;
59770;SDS011;45649;53.014;6.600;2023-07-29T00:12:12;9.23;;;8.47;;
59770;SDS011;45649;53.014;6.600;2023-07-29T00:14:38;8.70;;;7.87;;
59770;SDS011;45649;53.014;6.600;2023-07-29T00:17:04;8.73;;;8.00;;
59770;SDS011;45649;53.014;6.600;2023-07-29T00:19:31;8.83;;;8.03;;
59770;SDS011;45649;53.014;6.600;2023-07-29T00:21:58;9.47;;;8.67;;
59770;SDS011;45649;53.014;6.600;2023-07-29T00:24:24;8.67;;;7.97;;
59770;SDS011;45649;53.014;6.600;2023-07-29T00:26:50;9.47;;;8.63;;
59770;SDS011;45649;53.014;6.600;2023-07-29T00:29:16;9.20;;;8.40;;
59770;SDS011;45649;53.014;6.600;2023-07-29T00:31:42;9.60;;;8.90;;
59770;SDS011;45649;53.014;6.600;2023-07-29T00:34:08;9.33;;;8.53;;
59770;SDS011;45649;53.014;6.600;2023-07-29T00:36:34;9.17;;;8.37;;
59770;SDS011;45649;53.014;6.600;2023-07-29T00:39:00;9.03;;;8.23;;
59770;SDS011;45649;53.014;6.600;2023-07-29T00:41:26;9.27;;;8.50;;
59770;SDS011;45649;53.014;6.600;2023-07-29T00:43:52;10.33;;;9.20;;
59770;SDS011;45649;53.014;6.600;2023-07-29T00:46:18;9.90;;;9.10;;
59770;SDS011;45649;53.014;6.600;2023-07-29T00:48:45;9.67;;;8.87;;
59770;SDS011;45649;53.014;6.600;2023-07-29T00:51:12;9.67;;;8.80;;
59770;SDS011;45649;53.014;6.600;2023-07-29T00:53:38;10.07;;;9.17;;
59770;SDS011;45649;53.014;6.600;2023-07-29T00:56:04;9.83;;;8.87;;
59770;SDS011;45649;53.014;6.600;2023-07-29T00:58:30;10.03;;;9.03;;
59770;SDS011;45649;53.014;6.600;2023-07-29T01:00:56;9.87;;;9.07;;
59770;SDS011;45649;53.014;6.600;2023-07-29T01:03:22;9.73;;;8.93;;
59770;SDS011;45649;53.014;6.600;2023-07-29T01:06:11;9.87;;;8.60;;
59770;SDS011;45649;53.014;6.600;2023-07-29T01:11:28;9.63;;;8.83;;
59770;SDS011;45649;53.014;6.600;2023-07-29T01:14:21;8.87;;;7.97;;
59770;SDS011;45649;53.014;6.600;2023-07-29T01:16:46;8.40;;;7.70;;
59770;SDS011;45649;53.014;6.600;2023-07-29T01:19:18;8.87;;;8.17;;
59770;SDS011;45649;53.014;6.600;2023-07-29T01:21:49;8.70;;;7.90;;
59770;SDS011;45649;53.014;6.600;2023-07-29T01:24:16;8.80;;;8.10;;
59770;SDS011;45649;53.014;6.600;2023-07-29T01:26:42;10.40;;;7.50;;
59770;SDS011;45649;53.014;6.600;2023-07-29T01:29:08;8.03;;;7.43;;
59770;SDS011;45649;53.014;6.600;2023-07-29T01:31:35;9.40;;;8.60;;
59770;SDS011;45649;53.014;6.600;2023-07-29T01:36:47;7.97;;;7.27;;
59770;SDS011;45649;53.014;6.600;2023-07-29T01:39:14;8.20;;;7.50;;
59770;SDS011;45649;53.014;6.600;2023-07-29T01:41:43;8.63;;;7.63;;
59770;SDS011;45649;53.014;6.600;2023-07-29T01:44:09;7.10;;;6.50;;
59770;SDS011;45649;53.014;6.600;2023-07-29T01:46:36;8.90;;;8.00;;
59770;SDS011;45649;53.014;6.600;2023-07-29T01:49:02;7.40;;;6.80;;
59770;SDS011;45649;53.014;6.600;2023-07-29T01:51:28;7.90;;;7.23;;
59770;SDS011;45649;53.014;6.600;2023-07-29T01:53:54;8.37;;;7.67;;
59770;SDS011;45649;53.014;6.600;2023-07-29T01:56:20;7.80;;;7.20;;
59770;SDS011;45649;53.014;6.600;2023-07-29T01:58:46;7.53;;;6.83;;
59770;SDS011;45649;53.014;6.600;2023-07-29T02:03:48;7.63;;;6.93;;
59770;SDS011;45649;53.014;6.600;2023-07-29T02:06:19;7.63;;;7.03;;
59770;SDS011;45649;53.014;6.600;2023-07-29T02:08:46;7.73;;;7.10;;
59770;SDS011;45649;53.014;6.600;2023-07-29T02:11:12;7.30;;;6.67;;
59770;SDS011;45649;53.014;6.600;2023-07-29T02:13:38;7.93;;;7.23;;
59770;SDS011;45649;53.014;6.600;2023-07-29T02:16:04;7.67;;;6.97;;
59770;SDS011;45649;53.014;6.600;2023-07-29T02:18:30;7.70;;;7.00;;
59770;SDS011;45649;53.014;6.600;2023-07-29T02:20:56;6.73;;;6.23;;
59770;SDS011;45649;53.014;6.600;2023-07-29T02:23:22;8.23;;;7.43;;
59770;SDS011;45649;53.014;6.600;2023-07-29T02:25:48;7.13;;;6.63;;
59770;SDS011;45649;53.014;6.600;2023-07-29T02:28:15;7.70;;;7.03;;
59770;SDS011;45649;53.014;6.600;2023-07-29T02:30:41;9.50;;;7.00;;
59770;SDS011;45649;53.014;6.600;2023-07-29T02:33:09;7.43;;;6.70;;
59770;SDS011;45649;53.014;6.600;2023-07-29T02:35:35;7.10;;;6.50;;
59770;SDS011;45649;53.014;6.600;2023-07-29T02:38:02;7.53;;;6.83;;
59770;SDS011;45649;53.014;6.600;2023-07-29T02:40:28;7.27;;;6.57;;
59770;SDS011;45649;53.014;6.600;2023-07-29T02:42:54;5.80;;;5.40;;
59770;SDS011;45649;53.014;6.600;2023-07-29T02:45:20;7.07;;;6.20;;
59770;SDS011;45649;53.014;6.600;2023-07-29T02:47:46;6.60;;;6.00;;
59770;SDS011;45649;53.014;6.600;2023-07-29T02:50:12;6.73;;;6.13;;
59770;SDS011;45649;53.014;6.600;2023-07-29T02:52:38;6.73;;;6.10;;
59770;SDS011;45649;53.014;6.600;2023-07-29T02:55:04;6.73;;;6.13;;
59770;SDS011;45649;53.014;6.600;2023-07-29T02:57:31;6.33;;;5.73;;
59770;SDS011;45649;53.014;6.600;2023-07-29T02:59:57;6.57;;;6.07;;
59770;SDS011;45649;53.014;6.600;2023-07-29T03:02:23;6.77;;;5.53;;
59770;SDS011;45649;53.014;6.600;2023-07-29T03:04:49;6.40;;;5.90;;
59770;SDS011;45649;53.014;6.600;2023-07-29T03:07:15;6.40;;;5.73;;
59770;SDS011;45649;53.014;6.600;2023-07-29T03:09:41;6.77;;;5.33;;
59770;SDS011;45649;53.014;6.600;2023-07-29T03:12:09;6.47;;;5.90;;
59770;SDS011;45649;53.014;6.600;2023-07-29T03:14:35;6.50;;;5.90;;
59770;SDS011;45649;53.014;6.600;2023-07-29T03:17:04;6.00;;;5.40;;
59770;SDS011;45649;53.014;6.600;2023-07-29T03:19:30;6.23;;;5.73;;
59770;SDS011;45649;53.014;6.600;2023-07-29T03:21:56;6.40;;;5.90;;
59770;SDS011;45649;53.014;6.600;2023-07-29T03:24:22;6.67;;;5.70;;
59770;SDS011;45649;53.014;6.600;2023-07-29T03:26:48;5.70;;;5.30;;
59770;SDS011;45649;53.014;6.600;2023-07-29T03:29:15;5.97;;;5.50;;
59770;SDS011;45649;53.014;6.600;2023-07-29T03:31:41;6.60;;;5.40;;
59770;SDS011;45649;53.014;6.600;2023-07-29T03:34:07;5.03;;;4.63;;
59770;SDS011;45649;53.014;6.600;2023-07-29T03:36:35;5.47;;;4.97;;
59770;SDS011;45649;53.014;6.600;2023-07-29T03:39:01;5.23;;;4.73;;
59770;SDS011;45649;53.014;6.600;2023-07-29T03:41:28;5.63;;;5.07;;
59770;SDS011;45649;53.014;6.600;2023-07-29T03:43:54;5.70;;;4.60;;
59770;SDS011;45649;53.014;6.600;2023-07-29T03:46:20;6.23;;;4.87;;
59770;SDS011;45649;53.014;6.600;2023-07-29T03:48:47;5.43;;;4.60;;
59770;SDS011;45649;53.014;6.600;2023-07-29T03:51:13;5.13;;;4.63;;
59770;SDS011;45649;53.014;6.600;2023-07-29T03:53:39;5.40;;;4.90;;
59770;SDS011;45649;53.014;6.600;2023-07-29T03:56:05;6.80;;;5.40;;
59770;SDS011;45649;53.014;6.600;2023-07-29T03:58:31;5.83;;;5.23;;
59770;SDS011;45649;53.014;6.600;2023-07-29T04:00:57;5.43;;;4.93;;
59770;SDS011;45649;53.014;6.600;2023-07-29T04:03:24;5.60;;;5.07;;
59770;SDS011;45649;53.014;6.600;2023-07-29T04:05:50;7.50;;;5.03;;
59770;SDS011;45649;53.014;6.600;2023-07-29T04:08:16;5.90;;;5.30;;
59770;SDS011;45649;53.014;6.600;2023-07-29T04:10:42;6.13;;;5.50;;
59770;SDS011;45649;53.014;6.600;2023-07-29T04:13:08;6.30;;;5.70;;
59770;SDS011;45649;53.014;6.600;2023-07-29T04:15:34;6.53;;;5.77;;
59770;SDS011;45649;53.014;6.600;2023-07-29T04:18:01;5.23;;;4.83;;
59770;SDS011;45649;53.014;6.600;2023-07-29T04:20:27;5.53;;;5.03;;
59770;SDS011;45649;53.014;6.600;2023-07-29T04:22:53;5.57;;;5.07;;
59770;SDS011;45649;53.014;6.600;2023-07-29T04:25:19;5.60;;;4.83;;
59770;SDS011;45649;53.014;6.600;2023-07-29T04:27:45;5.63;;;5.13;;
59770;SDS011;45649;53.014;6.600;2023-07-29T04:30:11;6.23;;;5.10;;
59770;SDS011;45649;53.014;6.600;2023-07-29T04:32:37;5.50;;;5.00;;
59770;SDS011;45649;53.014;6.600;2023-07-29T04:35:03;5.33;;;4.83;;
59770;SDS011;45649;53.014;6.600;2023-07-29T04:37:31;5.77;;;4.90;;
59770;SDS011;45649;53.014;6.600;2023-07-29T04:39:57;5.50;;;5.00;;
59770;SDS011;45649;53.014;6.600;2023-07-29T04:42:23;5.33;;;4.73;;
59770;SDS011;45649;53.014;6.600;2023-07-29T04:44:49;4.77;;;4.30;;
59770;SDS011;45649;53.014;6.600;2023-07-29T04:47:16;5.23;;;4.67;;
59770;SDS011;45649;53.014;6.600;2023-07-29T04:49:42;4.83;;;4.53;;
59770;SDS011;45649;53.014;6.600;2023-07-29T04:52:08;5.53;;;4.40;;
59770;SDS011;45649;53.014;6.600;2023-07-29T04:54:34;4.90;;;4.10;;
59770;SDS011;45649;53.014;6.600;2023-07-29T04:57:00;5.13;;;4.53;;
59770;SDS011;45649;53.014;6.600;2023-07-29T04:59:27;4.80;;;4.00;;
59770;SDS011;45649;53.014;6.600;2023-07-29T05:01:53;5.10;;;4.60;;
59770;SDS011;45649;53.014;6.600;2023-07-29T05:04:19;5.03;;;4.23;;
59770;SDS011;45649;53.014;6.600;2023-07-29T05:06:45;5.23;;;3.67;;
59770;SDS011;45649;53.014;6.600;2023-07-29T05:09:18;3.97;;;3.57;;
59770;SDS011;45649;53.014;6.600;2023-07-29T05:11:45;4.47;;;4.13;;
59770;SDS011;45649;53.014;6.600;2023-07-29T05:14:16;4.63;;;3.80;;
59770;SDS011;45649;53.014;6.600;2023-07-29T05:16:42;4.97;;;3.57;;
59770;SDS011;45649;53.014;6.600;2023-07-29T05:19:09;5.03;;;3.87;;
59770;SDS011;45649;53.014;6.600;2023-07-29T05:21:35;5.07;;;3.80;;
59770;SDS011;45649;53.014;6.600;2023-07-29T05:24:01;4.37;;;3.97;;
59770;SDS011;45649;53.014;6.600;2023-07-29T05:26:27;4.50;;;3.90;;
59770;SDS011;45649;53.014;6.600;2023-07-29T05:28:53;3.90;;;3.50;;
59770;SDS011;45649;53.014;6.600;2023-07-29T05:31:19;6.63;;;4.10;;
59770;SDS011;45649;53.014;6.600;2023-07-29T05:33:45;3.87;;;3.40;;
59770;SDS011;45649;53.014;6.600;2023-07-29T05:36:11;5.30;;;3.60;;
59770;SDS011;45649;53.014;6.600;2023-07-29T05:38:37;3.60;;;3.30;;
59770;SDS011;45649;53.014;6.600;2023-07-29T05:41:03;4.10;;;3.20;;
59770;SDS011;45649;53.014;6.600;2023-07-29T05:43:29;3.67;;;3.37;;
59770;SDS011;45649;53.014;6.600;2023-07-29T05:45:56;3.57;;;3.27;;
59770;SDS011;45649;53.014;6.600;2023-07-29T05:48:22;4.50;;;3.70;;
59770;SDS011;45649;53.014;6.600;2023-07-29T05:50:48;4.50;;;3.50;;
59770;SDS011;45649;53.014;6.600;2023-07-29T05:53:14;4.83;;;3.33;;
59770;SDS011;45649;53.014;6.600;2023-07-29T05:55:40;4.93;;;3.70;;
59770;SDS011;45649;53.014;6.600;2023-07-29T05:58:06;3.27;;;2.97;;
59770;SDS011;45649;53.014;6.600;2023-07-29T06:00:32;3.40;;;3.10;;
59770;SDS011;45649;53.014;6.600;2023-07-29T06:02:59;3.50;;;3.20;;
59770;SDS011;45649;53.014;6.600;2023-07-29T06:05:25;4.53;;;3.00;;
59770;SDS011;45649;53.014;6.600;2023-07-29T06:07:51;3.40;;;3.13;;
59770;SDS011;45649;53.014;6.600;2023-07-29T06:10:17;4.10;;;3.20;;
59770;SDS011;45649;53.014;6.600;2023-07-29T06:12:43;4.47;;;3.37;;
59770;SDS011;45649;53.014;6.600;2023-07-29T06:15:09;3.97;;;3.37;;
59770;SDS011;45649;53.014;6.600;2023-07-29T06:17:36;5.23;;;3.43;;
59770;SDS011;45649;53.014;6.600;2023-07-29T06:20:02;4.90;;;3.47;;
59770;SDS011;45649;53.014;6.600;2023-07-29T06:22:28;3.67;;;3.03;;
59770;SDS011;45649;53.014;6.600;2023-07-29T06:24:54;3.77;;;3.27;;
59770;SDS011;45649;53.014;6.600;2023-07-29T06:27:20;7.17;;;3.60;;
59770;SDS011;45649;53.014;6.600;2023-07-29T06:29:46;4.47;;;3.40;;
59770;SDS011;45649;53.014;6.600;2023-07-29T06:32:12;4.57;;;3.50;;
59770;SDS011;45649;53.014;6.600;2023-07-29T06:34:38;5.73;;;3.30;;
59770;SDS011;45649;53.014;6.600;2023-07-29T06:37:04;5.53;;;3.30;;
59770;SDS011;45649;53.014;6.600;2023-07-29T06:39:30;4.23;;;3.37;;
59770;SDS011;45649;53.014;6.600;2023-07-29T06:41:57;5.00;;;3.30;;
59770;SDS011;45649;53.014;6.600;2023-07-29T06:44:26;5.67;;;3.33;;
59770;SDS011;45649;53.014;6.600;2023-07-29T06:46:52;4.33;;;3.40;;
59770;SDS011;45649;53.014;6.600;2023-07-29T06:49:18;6.50;;;3.40;;
59770;SDS011;45649;53.014;6.600;2023-07-29T06:51:44;5.27;;;3.60;;
59770;SDS011;45649;53.014;6.600;2023-07-29T06:54:10;7.07;;;3.57;;
59770;SDS011;45649;53.014;6.600;2023-07-29T06:56:36;5.17;;;3.30;;
59770;SDS011;45649;53.014;6.600;2023-07-29T06:59:02;6.43;;;3.80;;
59770;SDS011;45649;53.014;6.600;2023-07-29T07:01:28;6.67;;;3.90;;
59770;SDS011;45649;53.014;6.600;2023-07-29T07:03:54;5.17;;;4.17;;
59770;SDS011;45649;53.014;6.600;2023-07-29T07:06:23;5.47;;;3.67;;
59770;SDS011;45649;53.014;6.600;2023-07-29T07:08:50;4.27;;;3.87;;
59770;SDS011;45649;53.014;6.600;2023-07-29T07:11:18;5.30;;;4.10;;
59770;SDS011;45649;53.014;6.600;2023-07-29T07:13:44;5.23;;;3.77;;
59770;SDS011;45649;53.014;6.600;2023-07-29T07:16:10;6.97;;;4.30;;
59770;SDS011;45649;53.014;6.600;2023-07-29T07:18:36;5.13;;;4.03;;
59770;SDS011;45649;53.014;6.600;2023-07-29T07:21:02;5.83;;;4.23;;
59770;SDS011;45649;53.014;6.600;2023-07-29T07:23:28;6.50;;;4.40;;
59770;SDS011;45649;53.014;6.600;2023-07-29T07:25:54;6.03;;;3.80;;
59770;SDS011;45649;53.014;6.600;2023-07-29T07:28:21;5.63;;;4.00;;
59770;SDS011;45649;53.014;6.600;2023-07-29T07:30:47;5.47;;;4.27;;
59770;SDS011;45649;53.014;6.600;2023-07-29T07:33:13;5.57;;;4.90;;
59770;SDS011;45649;53.014;6.600;2023-07-29T07:35:39;9.47;;;4.80;;
59770;SDS011;45649;53.014;6.600;2023-07-29T07:38:07;6.43;;;4.30;;
59770;SDS011;45649;53.014;6.600;2023-07-29T07:40:35;6.47;;;4.60;;
59770;SDS011;45649;53.014;6.600;2023-07-29T07:43:01;4.80;;;4.37;;
59770;SDS011;45649;53.014;6.600;2023-07-29T07:45:27;6.23;;;4.60;;
59770;SDS011;45649;53.014;6.600;2023-07-29T07:47:53;5.87;;;4.47;;
59770;SDS011;45649;53.014;6.600;2023-07-29T07:50:19;5.00;;;4.13;;
59770;SDS011;45649;53.014;6.600;2023-07-29T07:52:45;6.13;;;4.50;;
59770;SDS011;45649;53.014;6.600;2023-07-29T07:55:11;4.53;;;4.13;;
59770;SDS011;45649;53.014;6.600;2023-07-29T07:57:37;9.80;;;5.37;;
59770;SDS011;45649;53.014;6.600;2023-07-29T08:00:04;8.17;;;4.80;;
59770;SDS011;45649;53.014;6.600;2023-07-29T08:02:30;4.57;;;4.17;;
59770;SDS011;45649;53.014;6.600;2023-07-29T08:04:56;7.70;;;4.80;;
59770;SDS011;45649;53.014;6.600;2023-07-29T08:07:22;5.60;;;4.20;;
59770;SDS011;45649;53.014;6.600;2023-07-29T08:09:48;5.30;;;4.27;;
59770;SDS011;45649;53.014;6.600;2023-07-29T08:12:14;4.73;;;3.80;;
59770;SDS011;45649;53.014;6.600;2023-07-29T08:14:40;5.67;;;4.67;;
59770;SDS011;45649;53.014;6.600;2023-07-29T08:17:06;6.93;;;4.03;;
59770;SDS011;45649;53.014;6.600;2023-07-29T08:19:32;7.17;;;4.40;;
59770;SDS011;45649;53.014;6.600;2023-07-29T08:22:02;5.13;;;4.10;;
59770;SDS011;45649;53.014;6.600;2023-07-29T08:24:28;4.23;;;3.73;;
59770;SDS011;45649;53.014;6.600;2023-07-29T08:26:54;8.07;;;4.40;;
59770;SDS011;45649;53.014;6.600;2023-07-29T08:29:20;4.50;;;3.70;;
59770;SDS011;45649;53.014;6.600;2023-07-29T08:31:46;5.70;;;4.20;;
59770;SDS011;45649;53.014;6.600;2023-07-29T08:34:12;5.23;;;4.60;;
59770;SDS011;45649;53.014;6.600;2023-07-29T08:36:38;6.07;;;4.00;;
59770;SDS011;45649;53.014;6.600;2023-07-29T08:39:04;6.87;;;3.80;;
59770;SDS011;45649;53.014;6.600;2023-07-29T08:41:32;5.60;;;3.27;;
59770;SDS011;45649;53.014;6.600;2023-07-29T08:44:06;3.90;;;3.20;;
59770;SDS011;45649;53.014;6.600;2023-07-29T08:46:35;4.67;;;3.40;;
59770;SDS011;45649;53.014;6.600;2023-07-29T08:49:04;6.10;;;3.17;;
59770;SDS011;45649;53.014;6.600;2023-07-29T08:51:31;4.93;;;2.90;;
59770;SDS011;45649;53.014;6.600;2023-07-29T08:53:58;4.03;;;3.10;;
59770;SDS011;45649;53.014;6.600;2023-07-29T08:56:24;4.40;;;3.10;;
59770;SDS011;45649;53.014;6.600;2023-07-29T08:58:52;4.07;;;3.10;;
59770;SDS011;45649;53.014;6.600;2023-07-29T09:01:18;4.23;;;3.13;;
59770;SDS011;45649;53.014;6.600;2023-07-29T09:03:44;4.87;;;2.80;;
59770;SDS011;45649;53.014;6.600;2023-07-29T09:06:10;3.10;;;2.70;;
59770;SDS011;45649;53.014;6.600;2023-07-29T09:08:37;3.20;;;2.80;;
59770;SDS011;45649;53.014;6.600;2023-07-29T09:11:03;5.13;;;2.90;;
59770;SDS011;45649;53.014;6.600;2023-07-29T09:13:30;2.87;;;2.47;;
59770;SDS011;45649;53.014;6.600;2023-07-29T09:15:59;3.10;;;2.33;;
59770;SDS011;45649;53.014;6.600;2023-07-29T09:18:25;2.87;;;2.43;;
59770;SDS011;45649;53.014;6.600;2023-07-29T09:20:52;4.87;;;2.80;;
59770;SDS011;45649;53.014;6.600;2023-07-29T09:23:18;3.73;;;2.40;;
59770;SDS011;45649;53.014;6.600;2023-07-29T09:25:47;2.83;;;2.50;;
59770;SDS011;45649;53.014;6.600;2023-07-29T09:28:14;3.60;;;2.63;;
59770;SDS011;45649;53.014;6.600;2023-07-29T09:30:41;2.67;;;2.10;;
59770;SDS011;45649;53.014;6.600;2023-07-29T09:33:08;3.10;;;2.57;;
59770;SDS011;45649;53.014;6.600;2023-07-29T09:35:34;5.20;;;2.60;;
59770;SDS011;45649;53.014;6.600;2023-07-29T09:38:04;4.47;;;2.20;;
59770;SDS011;45649;53.014;6.600;2023-07-29T09:40:39;3.40;;;2.10;;
59770;SDS011;45649;53.014;6.600;2023-07-29T09:43:05;3.67;;;2.30;;
59770;SDS011;45649;53.014;6.600;2023-07-29T09:45:33;5.03;;;2.40;;
59770;SDS011;45649;53.014;6.600;2023-07-29T09:47:59;3.07;;;2.30;;
59770;SDS011;45649;53.014;6.600;2023-07-29T09:50:26;5.17;;;2.50;;
59770;SDS011;45649;53.014;6.600;2023-07-29T09:52:53;4.13;;;2.37;;
59770;SDS011;45649;53.014;6.600;2023-07-29T09:55:22;2.73;;;2.20;;
59770;SDS011;45649;53.014;6.600;2023-07-29T09:57:59;3.70;;;2.30;;
59770;SDS011;45649;53.014;6.600;2023-07-29T10:00:30;5.07;;;2.47;;
59770;SDS011;45649;53.014;6.600;2023-07-29T10:02:57;5.17;;;2.70;;
59770;SDS011;45649;53.014;6.600;2023-07-29T10:05:25;2.93;;;2.53;;
59770;SDS011;45649;53.014;6.600;2023-07-29T10:07:51;3.37;;;2.40;;
59770;SDS011;45649;53.014;6.600;2023-07-29T10:10:18;5.97;;;2.70;;
59770;SDS011;45649;53.014;6.600;2023-07-29T10:12:44;3.97;;;2.80;;
59770;SDS011;45649;53.014;6.600;2023-07-29T10:15:10;2.93;;;2.50;;
59770;SDS011;45649;53.014;6.600;2023-07-29T10:17:36;4.30;;;2.70;;
59770;SDS011;45649;53.014;6.600;2023-07-29T10:20:07;3.33;;;2.60;;
59770;SDS011;45649;53.014;6.600;2023-07-29T10:22:40;3.50;;;2.20;;
59770;SDS011;45649;53.014;6.600;2023-07-29T10:25:16;4.23;;;2.60;;
59770;SDS011;45649;53.014;6.600;2023-07-29T10:28:04;2.93;;;1.73;;
59770;SDS011;45649;53.014;6.600;2023-07-29T10:30:29;4.10;;;2.03;;
59770;SDS011;45649;53.014;6.600;2023-07-29T10:32:55;3.50;;;2.10;;
59770;SDS011;45649;53.014;6.600;2023-07-29T10:35:24;3.60;;;2.10;;
59770;SDS011;45649;53.014;6.600;2023-07-29T10:37:53;3.63;;;1.80;;
59770;SDS011;45649;53.014;6.600;2023-07-29T10:40:20;3.63;;;1.77;;
59770;SDS011;45649;53.014;6.600;2023-07-29T10:43:03;2.70;;;1.80;;
59770;SDS011;45649;53.014;6.600;2023-07-29T10:45:36;1.87;;;1.60;;
59770;SDS011;45649;53.014;6.600;2023-07-29T10:48:06;2.27;;;1.63;;
59770;SDS011;45649;53.014;6.600;2023-07-29T10:50:33;3.13;;;1.60;;
59770;SDS011;45649;53.014;6.600;2023-07-29T10:53:00;2.37;;;1.70;;
59770;SDS011;45649;53.014;6.600;2023-07-29T10:55:33;2.57;;;1.93;;
59770;SDS011;45649;53.014;6.600;2023-07-29T10:58:07;4.47;;;1.73;;
59770;SDS011;45649;53.014;6.600;2023-07-29T11:00:34;2.83;;;2.00;;
59770;SDS011;45649;53.014;6.600;2023-07-29T11:03:01;5.60;;;2.20;;
59770;SDS011;45649;53.014;6.600;2023-07-29T11:05:41;4.20;;;2.07;;
59770;SDS011;45649;53.014;6.600;2023-07-29T11:08:27;1.60;;;1.40;;
59770;SDS011;45649;53.014;6.600;2023-07-29T11:13:26;3.50;;;1.40;;
59770;SDS011;45649;53.014;6.600;2023-07-29T11:15:53;1.40;;;1.30;;
59770;SDS011;45649;53.014;6.600;2023-07-29T11:18:20;2.90;;;1.40;;
59770;SDS011;45649;53.014;6.600;2023-07-29T11:20:46;2.53;;;1.20;;
59770;SDS011;45649;53.014;6.600;2023-07-29T11:23:13;1.63;;;1.23;;
59770;SDS011;45649;53.014;6.600;2023-07-29T11:25:40;2.27;;;1.57;;
59770;SDS011;45649;53.014;6.600;2023-07-29T11:28:06;2.27;;;1.70;;
59770;SDS011;45649;53.014;6.600;2023-07-29T11:30:32;2.53;;;1.50;;
59770;SDS011;45649;53.014;6.600;2023-07-29T11:32:58;3.10;;;1.60;;
59770;SDS011;45649;53.014;6.600;2023-07-29T11:35:25;1.57;;;1.43;;
59770;SDS011;45649;53.014;6.600;2023-07-29T11:37:54;3.00;;;1.57;;
59770;SDS011;45649;53.014;6.600;2023-07-29T11:40:24;1.70;;;1.60;;
59770;SDS011;45649;53.014;6.600;2023-07-29T11:42:51;3.53;;;2.10;;
59770;SDS011;45649;53.014;6.600;2023-07-29T11:45:17;2.73;;;1.73;;
59770;SDS011;45649;53.014;6.600;2023-07-29T11:47:44;2.17;;;1.80;;
59770;SDS011;45649;53.014;6.600;2023-07-29T11:50:11;2.83;;;1.90;;
59770;SDS011;45649;53.014;6.600;2023-07-29T11:52:40;4.03;;;2.03;;
59770;SDS011;45649;53.014;6.600;2023-07-29T11:55:06;3.47;;;1.87;;
59770;SDS011;45649;53.014;6.600;2023-07-29T11:57:33;4.47;;;2.20;;
59770;SDS011;45649;53.014;6.600;2023-07-29T12:00:01;3.10;;;2.20;;
59770;SDS011;45649;53.014;6.600;2023-07-29T12:02:29;3.83;;;2.30;;
59770;SDS011;45649;53.014;6.600;2023-07-29T12:04:55;4.30;;;2.50;;
59770;SDS011;45649;53.014;6.600;2023-07-29T12:07:22;6.10;;;2.27;;
59770;SDS011;45649;53.014;6.600;2023-07-29T12:09:48;3.83;;;2.50;;
59770;SDS011;45649;53.014;6.600;2023-07-29T12:12:15;4.63;;;2.40;;
59770;SDS011;45649;53.014;6.600;2023-07-29T12:14:43;3.33;;;2.07;;
59770;SDS011;45649;53.014;6.600;2023-07-29T12:17:10;4.07;;;2.43;;
59770;SDS011;45649;53.014;6.600;2023-07-29T12:19:37;4.97;;;2.53;;
59770;SDS011;45649;53.014;6.600;2023-07-29T12:22:04;4.33;;;2.30;;
59770;SDS011;45649;53.014;6.600;2023-07-29T12:24:31;4.47;;;2.30;;
59770;SDS011;45649;53.014;6.600;2023-07-29T12:26:57;3.47;;;2.20;;
59770;SDS011;45649;53.014;6.600;2023-07-29T12:29:23;3.30;;;2.47;;
59770;SDS011;45649;53.014;6.600;2023-07-29T12:31:56;2.60;;;2.40;;
59770;SDS011;45649;53.014;6.600;2023-07-29T12:34:24;3.83;;;2.57;;
59770;SDS011;45649;53.014;6.600;2023-07-29T12:36:51;3.47;;;2.57;;
59770;SDS011;45649;53.014;6.600;2023-07-29T12:39:27;3.90;;;2.20;;
59770;SDS011;45649;53.014;6.600;2023-07-29T12:41:54;4.20;;;2.30;;
59770;SDS011;45649;53.014;6.600;2023-07-29T12:44:39;4.33;;;2.27;;
59770;SDS011;45649;53.014;6.600;2023-07-29T12:47:06;3.37;;;2.30;;
59770;SDS011;45649;53.014;6.600;2023-07-29T12:49:34;3.93;;;2.07;;
59770;SDS011;45649;53.014;6.600;2023-07-29T12:52:00;3.10;;;2.30;;
59770;SDS011;45649;53.014;6.600;2023-07-29T12:54:26;4.17;;;2.20;;
59770;SDS011;45649;53.014;6.600;2023-07-29T12:56:52;3.97;;;2.10;;
59770;SDS011;45649;53.014;6.600;2023-07-29T12:59:18;3.53;;;2.20;;
59770;SDS011;45649;53.014;6.600;2023-07-29T13:01:44;2.90;;;2.20;;
59770;SDS011;45649;53.014;6.600;2023-07-29T13:04:10;3.23;;;2.07;;
59770;SDS011;45649;53.014;6.600;2023-07-29T13:06:37;2.63;;;2.10;;
59770;SDS011;45649;53.014;6.600;2023-07-29T13:09:03;2.93;;;1.93;;
59770;SDS011;45649;53.014;6.600;2023-07-29T13:11:30;3.33;;;2.00;;
59770;SDS011;45649;53.014;6.600;2023-07-29T13:13:57;3.67;;;2.10;;
59770;SDS011;45649;53.014;6.600;2023-07-29T13:16:25;3.43;;;1.70;;
59770;SDS011;45649;53.014;6.600;2023-07-29T13:18:51;2.10;;;1.70;;
59770;SDS011;45649;53.014;6.600;2023-07-29T13:21:17;2.73;;;1.50;;
59770;SDS011;45649;53.014;6.600;2023-07-29T13:23:43;1.90;;;1.17;;
59770;SDS011;45649;53.014;6.600;2023-07-29T13:26:09;2.83;;;1.47;;
59770;SDS011;45649;53.014;6.600;2023-07-29T13:28:36;3.03;;;1.30;;
59770;SDS011;45649;53.014;6.600;2023-07-29T13:31:02;1.53;;;1.30;;
59770;SDS011;45649;53.014;6.600;2023-07-29T13:33:28;3.07;;;1.47;;
59770;SDS011;45649;53.014;6.600;2023-07-29T13:35:58;2.33;;;1.70;;
59770;SDS011;45649;53.014;6.600;2023-07-29T13:38:24;4.00;;;1.90;;
59770;SDS011;45649;53.014;6.600;2023-07-29T13:40:51;2.57;;;1.30;;
59770;SDS011;45649;53.014;6.600;2023-07-29T13:43:17;2.70;;;1.53;;
59770;SDS011;45649;53.014;6.600;2023-07-29T13:45:43;1.93;;;1.10;;
59770;SDS011;45649;53.014;6.600;2023-07-29T13:48:09;1.20;;;1.10;;
59770;SDS011;45649;53.014;6.600;2023-07-29T13:50:35;1.67;;;1.00;;
59770;SDS011;45649;53.014;6.600;2023-07-29T13:53:01;0.90;;;0.90;;
59770;SDS011;45649;53.014;6.600;2023-07-29T13:55:27;1.53;;;0.90;;
59770;SDS011;45649;53.014;6.600;2023-07-29T13:57:53;0.90;;;0.90;;
59770;SDS011;45649;53.014;6.600;2023-07-29T14:00:19;0.83;;;0.83;;
59770;SDS011;45649;53.014;6.600;2023-07-29T14:02:46;1.43;;;0.90;;
59770;SDS011;45649;53.014;6.600;2023-07-29T14:05:12;1.67;;;1.33;;
59770;SDS011;45649;53.014;6.600;2023-07-29T14:07:39;1.27;;;1.10;;
59770;SDS011;45649;53.014;6.600;2023-07-29T14:10:05;1.40;;;1.10;;
59770;SDS011;45649;53.014;6.600;2023-07-29T14:12:31;2.13;;;1.20;;
59770;SDS011;45649;53.014;6.600;2023-07-29T14:14:57;2.03;;;1.20;;
59770;SDS011;45649;53.014;6.600;2023-07-29T14:17:23;1.93;;;1.20;;
59770;SDS011;45649;53.014;6.600;2023-07-29T14:19:49;1.90;;;1.30;;
59770;SDS011;45649;53.014;6.600;2023-07-29T14:22:15;2.50;;;1.23;;
59770;SDS011;45649;53.014;6.600;2023-07-29T14:24:41;1.30;;;1.20;;
59770;SDS011;45649;53.014;6.600;2023-07-29T14:27:07;2.67;;;1.10;;
59770;SDS011;45649;53.014;6.600;2023-07-29T14:29:34;3.30;;;1.30;;
59770;SDS011;45649;53.014;6.600;2023-07-29T14:32:00;2.37;;;1.23;;
59770;SDS011;45649;53.014;6.600;2023-07-29T14:34:26;1.50;;;1.07;;
59770;SDS011;45649;53.014;6.600;2023-07-29T14:36:52;1.40;;;1.30;;
59770;SDS011;45649;53.014;6.600;2023-07-29T14:39:18;2.00;;;1.30;;
59770;SDS011;45649;53.014;6.600;2023-07-29T14:41:44;1.77;;;1.20;;
59770;SDS011;45649;53.014;6.600;2023-07-29T14:44:10;3.90;;;1.10;;
59770;SDS011;45649;53.014;6.600;2023-07-29T14:46:36;1.90;;;1.20;;
59770;SDS011;45649;53.014;6.600;2023-07-29T14:49:02;1.53;;;1.10;;
59770;SDS011;45649;53.014;6.600;2023-07-29T14:51:28;1.30;;;1.20;;
59770;SDS011;45649;53.014;6.600;2023-07-29T14:53:55;1.23;;;1.00;;
59770;SDS011;45649;53.014;6.600;2023-07-29T14:56:21;1.17;;;0.93;;
59770;SDS011;45649;53.014;6.600;2023-07-29T14:58:47;1.23;;;0.80;;